createdAt,value
2022-11-15T00:00:56.898Z,5.50
2022-11-15T00:06:04.461Z,5.40
2022-11-15T00:11:08.097Z,5.40
2022-11-15T00:16:12.363Z,5.60
2022-11-15T00:21:16.593Z,5.50
2022-11-15T00:26:20.286Z,5.70
2022-11-15T00:31:22.554Z,5.80
2022-11-15T00:36:24.742Z,5.70
2022-11-15T00:41:28.201Z,5.80
2022-11-15T00:46:30.321Z,5.90
2022-11-15T00:51:32.474Z,5.90
2022-11-15T00:56:35.961Z,5.80
2022-11-15T01:01:38.112Z,5.70
2022-11-15T01:06:40.221Z,5.70
2022-11-15T01:11:43.667Z,5.60
2022-11-15T01:16:45.723Z,5.60
2022-11-15T01:21:47.853Z,5.60
2022-11-15T01:26:51.454Z,5.50
2022-11-15T01:31:55.485Z,5.60
2022-11-15T01:36:57.567Z,5.50
2022-11-15T01:42:01.163Z,5.60
2022-11-15T01:47:05.273Z,5.60
2022-11-15T01:52:11.244Z,5.60
2022-11-15T01:57:15.788Z,5.40
2022-11-15T02:02:18.091Z,5.20
2022-11-15T02:07:24.517Z,5.20
2022-11-15T02:12:28.277Z,5.40
2022-11-15T02:17:52.623Z,5.40
2022-11-15T02:23:30.619Z,5.50
2022-11-15T02:28:46.704Z,5.60
2022-11-15T02:33:57.257Z,5.70
2022-11-15T02:39:05.935Z,5.60
2022-11-15T02:44:14.533Z,5.60
2022-11-15T02:49:18.944Z,5.80
2022-11-15T02:54:24.189Z,5.90
2022-11-15T03:00:06.076Z,5.90
2022-11-15T03:05:17.672Z,5.80
2022-11-15T03:10:24.799Z,5.90
2022-11-15T03:15:31.381Z,6.00
2022-11-15T03:20:37.042Z,6.00
2022-11-15T03:25:43.891Z,6.00
2022-11-15T03:30:48.272Z,6.00
2022-11-15T03:35:53.576Z,6.00
2022-11-15T03:41:01.192Z,6.00
2022-11-15T03:46:08.900Z,6.00
2022-11-15T03:51:13.514Z,6.00
2022-11-15T03:56:15.609Z,6.10
2022-11-15T04:01:17.778Z,6.10
2022-11-15T04:06:21.432Z,6.10
2022-11-15T04:11:23.500Z,6.20
2022-11-15T04:16:25.596Z,6.20
2022-11-15T04:21:46.261Z,6.10
2022-11-15T04:26:48.328Z,6.00
2022-11-15T04:31:50.361Z,6.10
2022-11-15T04:37:15.006Z,6.10
2022-11-15T04:42:17.091Z,6.10
2022-11-15T04:47:19.894Z,6.00
2022-11-15T04:52:23.405Z,6.00
2022-11-15T04:57:25.483Z,6.00
2022-11-15T05:02:48.287Z,6.00
2022-11-15T05:07:51.731Z,6.00
2022-11-15T05:12:53.950Z,5.90
2022-11-15T05:18:00.392Z,5.90
2022-11-15T05:23:03.980Z,5.80
2022-11-15T05:28:06.277Z,5.60
2022-11-15T05:33:08.690Z,5.70
2022-11-15T05:38:12.215Z,5.70
2022-11-15T05:43:17.487Z,5.80
2022-11-15T05:48:19.953Z,5.70
2022-11-15T05:53:25.927Z,5.80
2022-11-15T05:58:28.033Z,5.70
2022-11-15T06:03:30.751Z,5.90
2022-11-15T06:08:34.363Z,6.00
2022-11-15T06:13:36.849Z,6.10
2022-11-15T06:18:39.278Z,6.20
2022-11-15T06:23:42.747Z,6.20
2022-11-15T06:28:44.805Z,6.30
2022-11-15T06:33:50.399Z,6.40
2022-11-15T06:38:53.899Z,6.40
2022-11-15T06:43:55.982Z,7.00
2022-11-15T06:48:58.092Z,8.70
2022-11-15T06:59:17.461Z,7.60
2022-11-15T07:04:19.644Z,7.20
2022-11-15T07:09:21.799Z,7.00
2022-11-15T07:14:25.205Z,6.90
2022-11-15T07:19:27.235Z,6.80
2022-11-15T07:24:29.263Z,6.70
2022-11-15T07:29:32.983Z,6.70
2022-11-15T07:34:35.025Z,6.70
2022-11-15T07:39:37.101Z,6.60
2022-11-15T07:44:40.524Z,6.60
2022-11-15T07:49:43.987Z,6.50
2022-11-15T07:54:46.030Z,6.60
2022-11-15T07:59:49.492Z,6.60
2022-11-15T08:04:51.589Z,6.60
2022-11-15T08:09:56.254Z,6.70
2022-11-15T08:14:59.812Z,6.80
2022-11-15T08:20:01.916Z,6.90
2022-11-15T08:25:04.014Z,6.90
2022-11-15T08:30:08.841Z,6.90
2022-11-15T08:35:11.431Z,7.00
2022-11-15T08:40:14.848Z,7.00
2022-11-15T08:45:18.492Z,7.00
2022-11-15T08:50:20.996Z,7.10
2022-11-15T08:55:24.817Z,7.00
2022-11-15T09:00:28.572Z,6.90
2022-11-15T09:05:30.641Z,6.70
2022-11-15T09:10:39.722Z,6.80
2022-11-15T09:15:44.426Z,6.90
2022-11-15T09:20:54.942Z,6.80
2022-11-15T09:26:01.374Z,6.80
2022-11-15T09:31:07.342Z,6.80
2022-11-15T09:36:11.345Z,6.80
2022-11-15T09:41:43.367Z,6.90
2022-11-15T09:46:54.853Z,7.00
2022-11-15T09:51:57.366Z,7.10
2022-11-15T09:57:15.957Z,7.20
2022-11-15T10:02:35.519Z,7.30
2022-11-15T10:07:45.497Z,7.20
2022-11-15T10:12:51.829Z,7.20
2022-11-15T10:18:19.204Z,7.20
2022-11-15T10:23:23.680Z,7.30
2022-11-15T10:28:31.467Z,7.40
2022-11-15T10:33:36.908Z,7.30
2022-11-15T10:38:57.043Z,7.40
2022-11-15T10:44:32.274Z,7.50
2022-11-15T10:49:36.879Z,7.50
2022-11-15T10:54:43.136Z,7.50
2022-11-15T10:59:49.621Z,7.60
2022-11-15T11:04:54.129Z,7.60
2022-11-15T11:10:01.244Z,7.50
2022-11-15T11:15:11.342Z,7.60
2022-11-15T11:20:25.738Z,7.60
2022-11-15T11:25:36.653Z,7.70
2022-11-15T11:30:59.760Z,7.70
2022-11-15T11:36:20.884Z,7.70
2022-11-15T11:41:40.856Z,7.70
2022-11-15T11:46:57.525Z,7.70
2022-11-15T11:52:06.170Z,7.70
2022-11-15T11:57:15.582Z,7.70
2022-11-15T12:02:27.124Z,7.80
2022-11-15T12:07:36.575Z,7.80
2022-11-15T12:12:43.510Z,7.80
2022-11-15T12:17:47.254Z,7.80
2022-11-15T12:22:57.954Z,7.80
2022-11-15T12:28:08.538Z,7.70
2022-11-15T12:33:36.386Z,7.80
2022-11-15T12:38:59.603Z,7.90
2022-11-15T12:44:02.297Z,7.90
2022-11-15T12:49:10.233Z,7.80
2022-11-15T12:55:04.200Z,7.80
2022-11-15T13:00:44.980Z,7.90
2022-11-15T13:06:40.877Z,7.90
2022-11-15T13:11:54.668Z,7.90
2022-11-15T13:17:01.106Z,8.00
2022-11-15T13:22:24.689Z,8.00
2022-11-15T13:27:28.314Z,8.00
2022-11-15T13:32:30.438Z,8.00
2022-11-15T13:37:34.409Z,8.00
2022-11-15T13:42:40.602Z,8.10
2022-11-15T13:47:46.779Z,8.00
2022-11-15T13:52:50.121Z,8.00
2022-11-15T13:57:57.815Z,7.90
2022-11-15T14:03:15.517Z,7.80
2022-11-15T14:08:25.423Z,7.80
2022-11-15T14:13:32.323Z,7.60
2022-11-15T14:18:50.580Z,7.70
2022-11-15T14:23:56.114Z,7.70
2022-11-15T14:29:19.606Z,7.70
2022-11-15T14:34:23.451Z,7.60
2022-11-15T14:39:29.612Z,7.60
2022-11-15T14:44:33.030Z,7.60
2022-11-15T14:49:35.127Z,7.50
2022-11-15T14:54:37.208Z,7.50
2022-11-15T14:59:40.656Z,7.50
2022-11-15T15:04:45.578Z,7.50
2022-11-15T15:09:51.245Z,7.60
2022-11-15T15:14:57.584Z,7.60
2022-11-15T15:20:02.741Z,7.70
2022-11-15T15:25:07.969Z,7.80
2022-11-15T15:30:13.039Z,7.80
2022-11-15T15:35:17.808Z,7.90
2022-11-15T15:40:22.232Z,7.90
2022-11-15T15:45:28.062Z,7.90
2022-11-15T15:50:32.219Z,7.80
2022-11-15T15:55:34.589Z,7.90
2022-11-15T16:00:38.803Z,7.90
2022-11-15T16:05:41.214Z,7.90
2022-11-15T16:10:43.661Z,7.90
2022-11-15T16:15:48.867Z,7.90
2022-11-15T16:20:53.271Z,7.90
2022-11-15T16:25:57.666Z,7.70
2022-11-15T16:31:05.650Z,7.70
2022-11-15T16:36:25.631Z,7.80
2022-11-15T16:41:34.591Z,7.80
2022-11-15T16:46:38.819Z,7.90
2022-11-15T16:51:41.578Z,7.80
2022-11-15T16:56:44.007Z,7.80
2022-11-15T17:01:53.384Z,7.60
2022-11-15T17:06:55.607Z,7.60
2022-11-15T17:11:59.636Z,7.80
2022-11-15T17:17:03.679Z,7.90
2022-11-15T17:22:05.891Z,7.90
2022-11-15T17:27:08.143Z,8.20
2022-11-15T17:32:12.035Z,9.60
2022-11-15T17:37:14.548Z,9.00
2022-11-15T17:42:17.403Z,8.70
2022-11-15T17:47:21.646Z,8.40
2022-11-15T17:52:25.407Z,8.20
2022-11-15T17:57:27.991Z,8.20
2022-11-15T18:02:32.736Z,8.10
2022-11-15T18:07:36.420Z,8.10
2022-11-15T18:12:39.299Z,8.00
2022-11-15T18:17:44.347Z,7.90
2022-11-15T18:22:47.631Z,7.90
2022-11-15T18:27:55.924Z,7.80
2022-11-15T18:33:01.477Z,7.90
2022-11-15T18:38:05.291Z,7.80
2022-11-15T18:43:08.817Z,7.90
2022-11-15T18:48:13.175Z,7.90
2022-11-15T18:53:16.217Z,7.80
2022-11-15T18:58:19.512Z,7.90
2022-11-15T19:03:24.729Z,7.90
2022-11-15T19:08:30.579Z,7.80
2022-11-15T19:13:37.543Z,7.70
2022-11-15T19:18:42.463Z,7.70
2022-11-15T19:23:45.951Z,7.70
2022-11-15T19:28:53.144Z,7.80
2022-11-15T19:33:58.300Z,7.70
2022-11-15T19:39:05.614Z,7.80
2022-11-15T19:44:10.053Z,7.80
2022-11-15T19:49:14.694Z,7.70
2022-11-15T19:54:19.116Z,7.70
2022-11-15T19:59:21.843Z,7.80
2022-11-15T20:04:27.383Z,7.80
2022-11-15T20:09:30.000Z,7.80
2022-11-15T20:14:35.396Z,7.90
2022-11-15T20:19:39.392Z,7.90
2022-11-15T20:24:42.277Z,7.90
2022-11-15T20:29:45.247Z,8.00
2022-11-15T20:34:53.952Z,8.00
2022-11-15T20:39:56.356Z,8.00
2022-11-15T20:44:59.369Z,8.00
2022-11-15T20:50:27.554Z,7.90
2022-11-15T20:55:28.094Z,8.00
2022-11-15T21:00:31.103Z,8.00
2022-11-15T21:05:36.887Z,8.00
2022-11-15T21:10:57.265Z,8.00
2022-11-15T21:15:59.536Z,8.00
2022-11-15T21:21:09.699Z,8.00
2022-11-15T21:26:12.028Z,8.00
2022-11-15T21:31:14.147Z,8.00
2022-11-15T21:36:17.785Z,7.90
2022-11-15T21:41:19.860Z,7.90
2022-11-15T21:46:21.958Z,7.80
2022-11-15T21:51:26.063Z,7.90
2022-11-15T21:56:29.787Z,8.00
2022-11-15T22:07:10.163Z,7.90
2022-11-15T22:12:12.590Z,8.00
2022-11-15T22:17:14.674Z,7.90
2022-11-15T22:22:18.360Z,7.90
2022-11-15T22:27:20.508Z,7.90
2022-11-15T22:32:22.844Z,7.80
2022-11-15T22:37:26.255Z,7.90
2022-11-15T22:42:28.349Z,7.90
2022-11-15T22:47:30.467Z,7.90
2022-11-15T22:52:34.056Z,8.00
2022-11-15T22:57:45.226Z,8.00
2022-11-15T23:02:51.787Z,7.90
2022-11-15T23:07:56.777Z,7.90
2022-11-15T23:23:32.429Z,7.90
2022-11-15T23:28:35.592Z,8.00
2022-11-15T23:33:55.344Z,8.00
2022-11-15T23:38:59.367Z,8.00
2022-11-15T23:44:01.681Z,8.10
2022-11-15T23:49:03.907Z,8.10
2022-11-15T23:54:08.104Z,8.10
2022-11-15T23:59:10.973Z,8.10
